METAR Data
IDs: Format: Raw Decoded Include TAF

Data at: 0755 UTC 11 Dec 2018

PAHL 110656Z AUTO 07010KT 10SM CLR M12/M15 A2892 RMK AO2 SLP804 T11221150 FZRANO
PAHL 110556Z AUTO 06011KT 10SM CLR M12/M14 A2893 RMK AO2 SLP808 T11171144 11111 21128 56012 FZRANO
PAHL 110456Z AUTO 06012G17KT 10SM CLR M12/M14 A2894 RMK AO2 SLP808 T11171144 FZRANO
PAHL 110356Z AUTO 07009KT 10SM CLR M13/M15 A2896 RMK AO2 SLP815 T11281150 FZRANO
PAHL 110256Z AUTO 08011KT 10SM CLR M13/M16 A2897 RMK AO2 SLP819 T11281156 55009 FZRANO
PAHL 110156Z AUTO 07014G20KT 10SM SCT070 M13/M16 A2897 RMK AO2 SLP818 T11281156 FZRANO
PAHL 110056Z AUTO 08017G22KT 10SM BKN065 M12/M15 A2898 RMK AO2 SLP824 T11221150 FZRANO
PAHL 102356Z AUTO 08014G20KT 10SM BKN050 OVC065 M12/M15 A2900 RMK AO2 SLP830 T11221150 11117 21128 58011 FZRANO
PAHL 102256Z AUTO 08013KT 10SM OVC055 M12/M15 A2901 RMK AO2 SLP835 T11171150 FZRANO
PAHL 102156Z AUTO 08012G20KT 10SM OVC050 M12/M15 A2902 RMK AO2 SLP836 T11221150 FZRANO
PAHL 102056Z AUTO 08012G19KT 10SM OVC080 M12/M15 A2903 RMK AO2 SLP841 T11221150 58001 FZRANO
PAHL 101956Z AUTO 08011G17KT 10SM SCT050 OVC075 M13/M15 A2904 RMK AO2 SLP842 T11281150 FZRANO
PAHL 101856Z AUTO 07012G18KT 10SM BKN075 OVC110 M13/M15 A2904 RMK AO2 SLP844 T11281150 FZRANO
PAHL 101756Z AUTO 07013G19KT 10SM SCT070 OVC085 M13/M15 A2903 RMK AO2 SNB36E46 SLP841 P0000 60000 T11281150 11122 21139 58015 FZRANO
PAHL 101656Z AUTO 07011G18KT 10SM CLR M13/M16 A2906 RMK AO2 SLP849 T11331156 FZRANO
PAHL 101556Z AUTO 06011KT 10SM CLR M14/M16 A2907 RMK AO2 SLP852 T11391161 FZRANO
PAHL 101456Z AUTO 07009KT 10SM CLR M13/M16 A2908 RMK AO2 SLP856 60000 T11331156 56010 FZRANO
PAHL 101356Z AUTO 07009KT 10SM SCT049 M13/M15 A2908 RMK AO2 SNB12E23 SLP857 P0000 T11331150 FZRANO
PAHL 101256Z AUTO 07008KT 10SM OVC047 M13/M14 A2909 RMK AO2 SNE47 SLP861 P0000 T11281144 FZRANO
PAHL 101156Z AUTO 07007KT 9SM -SN FEW031 OVC043 M12/M13 A2911 RMK AO2 SLP866 P0000 60000 T11221133 11111 21128 58004 FZRANO
PAHL 101056Z AUTO 07008KT 9SM -SN OVC047 M12/M14 A2912 RMK AO2 SLP869 P0000 T11221139 FZRANO
PAHL 100956Z AUTO 07006KT 9SM -SN OVC050 M13/M14 A2912 RMK AO2 SLP872 P0000 T11281144 FZRANO
PAHL 100756Z AUTO 06005KT 9SM -SN OVC055 M12/M14 A2911 RMK AO2 SNE0659B19 SLP868 P0000 T11221139 FZRANO
PAHL 100704Z AUTO 07005KT 9SM SCT029 OVC055 M12/M13 A2911 RMK AO2 SNE0659 P0000 FZRANO
PAHL 100656Z AUTO 07006KT 9SM -SN BKN029 OVC050 M12/M13 A2911 RMK AO2 SLP868 P0000 T11171133 FZRANO
PAHL 100634Z AUTO 07005KT 9SM -SN FEW012 BKN027 OVC032 M12/M13 A2911 RMK AO2 P0000 FZRANO
PAHL 100623Z AUTO 07005KT 9SM -SN FEW012 SCT025 OVC034 M12/M13 A2911 RMK AO2 P0000 FZRANO
PAHL 100616Z AUTO 06004KT 7SM -SN SCT012 BKN025 OVC036 M12/M13 A2911 RMK AO2 P0000 FZRANO
PAHL 100556Z AUTO 06003KT 3SM -SN BR SCT017 SCT025 OVC042 M11/M13 A2911 RMK AO2 SLP866 P0000 60000 T11111128 11111 21133 51011 FZRANO
PAHL 100551Z AUTO 07003KT 3SM -SN BR FEW017 BKN031 OVC042 M11/M13 A2911 RMK AO2 P0000 FZRANO
PAHL 100539Z AUTO 08003KT 2 1/2SM -SN BR SCT017 BKN025 OVC044 M11/M13 A2910 RMK AO2 P0000 FZRANO
PAHL 100516Z AUTO 07003KT 4SM -SN BR FEW024 BKN033 OVC044 M12/M13 A2910 RMK AO2 P0000 FZRANO
PAHL 100502Z AUTO 07004KT 3SM -SN BR BKN024 OVC035 M12/M13 A2910 RMK AO2 P0000 FZRANO
PAHL 100456Z AUTO 07004KT 1 1/4SM -SN BR FEW008 BKN024 OVC035 M12/M13 A2910 RMK AO2 SLP863 P0000 T11171128 FZRANO
PAHL 100441Z AUTO 06003KT 1SM -SN BR SCT008 BKN021 OVC026 M12/M13 A2910 RMK AO2 P0000 FZRANO
PAHL 100426Z AUTO 07003KT 1 3/4SM -SN BR SCT008 BKN014 OVC049 M12/M13 A2909 RMK AO2 VIS 3/4V5 P0000 FZRANO
PAHL 100419Z AUTO 06003KT 3SM -SN BR SCT015 BKN025 OVC049 M12/M13 A2909 RMK AO2 P0000 FZRANO
PAHL 100411Z AUTO 06003KT 1 1/4SM -SN BR FEW025 BKN029 OVC049 M12/M13 A2909 RMK AO2 P0000 FZRANO
PAHL 100405Z AUTO 00000KT 2 1/2SM -SN BR SCT025 BKN040 OVC049 M12/M13 A2909 RMK AO2 VIS 3/4V5 P0000 FZRANO
PAHL 100356Z AUTO 00000KT 3SM -SN BR BKN023 OVC040 M12/M13 A2909 RMK AO2 SLP861 P0000 T11171133 FZRANO
PAHL 100256Z AUTO 07003KT 9SM -SN FEW019 BKN040 OVC065 M12/M14 A2908 RMK AO2 SLP857 P0000 60000 T11221139 55002 FZRANO
PAHL 100230Z AUTO 06003KT 4SM -SN BR BKN031 OVC070 M12/M14 A2908 RMK AO2 P0000 FZRANO
PAHL 100156Z AUTO 05003KT 5SM -SN BR OVC025 M12/M14 A2907 RMK AO2 SLP855 P0000 T11221139 FZRANO
PAHL 100133Z AUTO 07003KT 5SM -SN BR BKN025 BKN031 OVC043 M12/M14 A2908 RMK AO2 P0000 FZRANO
PAHL 100112Z AUTO 07004KT 9SM -SN SCT025 BKN033 OVC041 M13/M14 A2908 RMK AO2 P0000 FZRANO
PAHL 100056Z AUTO 07004KT 9SM -SN BKN025 OVC033 M13/M14 A2908 RMK AO2 SLP857 P0000 T11281139 FZRANO
PAHL 100047Z AUTO 07004KT 9SM -SN FEW011 OVC027 M13/M14 A2908 RMK AO2 P0000 FZRANO
PAHL 100038Z AUTO 07003KT 4SM -SN BR FEW011 SCT019 OVC030 M13/M14 A2908 RMK AO2 P0000 FZRANO
PAHL 100033Z AUTO 06003KT 2SM -SN BR FEW011 BKN021 OVC030 M13/M14 A2908 RMK AO2 P0000 FZRANO
PAHL 100023Z AUTO 07003KT 2SM -SN BR BKN011 OVC019 M13/M14 A2908 RMK AO2 VIS 3/4V5 CIG 008V014 P0000 FZRANO
PAHL 100013Z AUTO 07003KT 1 3/4SM -SN BR SCT011 BKN017 OVC024 M13/M14 A2909 RMK AO2 VIS 3/4V5 P0000 FZRANO
PAHL 100010Z AUTO 07003KT 3SM -SN BR SCT011 BKN017 OVC022 M13/M14 A2909 RMK AO2 P0000 FZRANO
PAHL 100007Z AUTO 06004KT 2SM -SN BR BKN011 BKN017 OVC024 M13/M14 A2909 RMK AO2 VIS 1V5 CIG 008V012 P0000 FZRANO
PAHL 092356Z AUTO 06004KT 1 1/4SM -SN BR SCT011 OVC017 M13/M15 A2908 RMK AO2 VIS 3/4V4 SLP858 P0000 60000 T11331150 11133 21161 50001 FZRANO
PAHL 092352Z AUTO 06003KT 1SM -SN BR OVC017 M13/M15 A2909 RMK AO2 VIS 1/2V2 1/2 P0000 FZRANO
PAHL 092347Z AUTO 07003KT 1/2SM SN FZFG OVC017 M13/M15 A2908 RMK AO2 P0000 FZRANO
PAHL 092337Z AUTO 00000KT 3/4SM -SN BR BKN017 OVC029 M14/M15 A2908 RMK AO2 P0000 FZRANO
PAHL 092325Z AUTO 05003KT 3/4SM -SN BR FEW017 OVC031 M14/M16 A2909 RMK AO2 P0000 FZRANO
PAHL 092317Z AUTO 00000KT 1 3/4SM -SN BR FEW021 OVC031 M14/M16 A2909 RMK AO2 VIS 1V4 P0000 FZRANO
PAHL 092305Z AUTO 02003KT 4SM -SN BR FEW021 BKN035 OVC047 M14/M16 A2909 RMK AO2 P0000 FZRANO
PAHL 092259Z AUTO 36003KT 2 1/2SM -SN BR FEW021 BKN029 OVC047 M14/M16 A2909 RMK AO2 VIS 1V5 P0000 FZRANO
PAHL 092256Z AUTO 00000KT 1 3/4SM -SN BR FEW021 BKN039 OVC047 M14/M16 A2909 RMK AO2 VIS 1V4 SNB13 SLP859 P0000 T11441161 FZRANO
PAHL 092156Z AUTO 07003KT 10SM BKN050 M16/M17 A2908 RMK AO2 SNE00 SLP859 P0000 T11561172 FZRANO
PAHL 092056Z AUTO 07004KT 8SM -SN BKN039 M16/M18 A2908 RMK AO2 SNB04 SLP858 P0000 60000 T11611178 55000 FZRANO
PAHL 092040Z AUTO 07003KT 9SM BKN039 OVC050 M16/M18 A2908 RMK AO2 SNB04E36 P0000 FZRANO
PAHL 092030Z AUTO 07003KT 2SM -SN BR SCT037 OVC060 M16/M17 A2908 RMK AO2 SNB04 P0000 FZRANO
PAHL 091956Z AUTO 07004KT 10SM CLR M16/M17 A2908 RMK AO2 SLP858 T11561172 FZRANO